sensor_id;sensor_type;location;lat;lon;timestamp;temperature;humidity
83019;DHT22;72834;40.104;18.336;2024-02-28T00:02:02;14.50;99.90
83019;DHT22;72834;40.104;18.336;2024-02-28T00:04:32;14.50;99.90
83019;DHT22;72834;40.104;18.336;2024-02-28T00:06:58;14.50;99.90
83019;DHT22;72834;40.104;18.336;2024-02-28T00:09:25;14.50;99.90
83019;DHT22;72834;40.104;18.336;2024-02-28T00:11:51;14.50;99.90
83019;DHT22;72834;40.104;18.336;2024-02-28T00:14:18;14.50;99.90
83019;DHT22;72834;40.104;18.336;2024-02-28T00:16:46;14.50;99.90
83019;DHT22;72834;40.104;18.336;2024-02-28T00:19:13;14.50;99.90
83019;DHT22;72834;40.104;18.336;2024-02-28T00:21:40;14.50;99.90
83019;DHT22;72834;40.104;18.336;2024-02-28T00:24:08;14.50;99.90
83019;DHT22;72834;40.104;18.336;2024-02-28T00:26:34;14.50;99.90
83019;DHT22;72834;40.104;18.336;2024-02-28T00:29:01;14.50;99.90
83019;DHT22;72834;40.104;18.336;2024-02-28T00:31:27;14.50;99.90
83019;DHT22;72834;40.104;18.336;2024-02-28T00:33:53;14.60;99.90
83019;DHT22;72834;40.104;18.336;2024-02-28T00:36:19;14.60;99.90
83019;DHT22;72834;40.104;18.336;2024-02-28T00:38:46;14.50;99.90
83019;DHT22;72834;40.104;18.336;2024-02-28T00:41:12;14.50;99.90
83019;DHT22;72834;40.104;18.336;2024-02-28T00:43:38;14.50;99.90
83019;DHT22;72834;40.104;18.336;2024-02-28T00:46:04;14.60;99.90
83019;DHT22;72834;40.104;18.336;2024-02-28T00:48:34;14.60;99.90
83019;DHT22;72834;40.104;18.336;2024-02-28T00:51:01;14.50;99.90
83019;DHT22;72834;40.104;18.336;2024-02-28T00:53:27;14.50;99.90
83019;DHT22;72834;40.104;18.336;2024-02-28T00:55:53;14.50;99.90
83019;DHT22;72834;40.104;18.336;2024-02-28T00:58:21;14.50;99.90
83019;DHT22;72834;40.104;18.336;2024-02-28T01:00:50;14.50;99.90
83019;DHT22;72834;40.104;18.336;2024-02-28T01:03:16;14.40;99.90
83019;DHT22;72834;40.104;18.336;2024-02-28T01:05:44;14.40;99.90
83019;DHT22;72834;40.104;18.336;2024-02-28T01:08:11;14.40;99.90
83019;DHT22;72834;40.104;18.336;2024-02-28T01:10:37;14.40;99.90
83019;DHT22;72834;40.104;18.336;2024-02-28T01:13:04;14.40;99.90
83019;DHT22;72834;40.104;18.336;2024-02-28T01:15:30;14.40;99.90
83019;DHT22;72834;40.104;18.336;2024-02-28T01:17:57;14.40;99.90
83019;DHT22;72834;40.104;18.336;2024-02-28T01:20:23;14.40;99.90
83019;DHT22;72834;40.104;18.336;2024-02-28T01:22:49;14.30;99.90
83019;DHT22;72834;40.104;18.336;2024-02-28T01:25:15;14.30;99.90
83019;DHT22;72834;40.104;18.336;2024-02-28T01:27:42;14.30;99.90
83019;DHT22;72834;40.104;18.336;2024-02-28T01:30:09;14.30;99.90
83019;DHT22;72834;40.104;18.336;2024-02-28T01:32:35;14.30;99.90
83019;DHT22;72834;40.104;18.336;2024-02-28T01:35:05;14.30;99.90
83019;DHT22;72834;40.104;18.336;2024-02-28T01:37:31;14.40;99.90
83019;DHT22;72834;40.104;18.336;2024-02-28T01:39:57;14.30;99.90
83019;DHT22;72834;40.104;18.336;2024-02-28T01:42:23;14.30;99.90
83019;DHT22;72834;40.104;18.336;2024-02-28T01:44:50;14.40;99.90
83019;DHT22;72834;40.104;18.336;2024-02-28T01:47:17;14.40;99.90
83019;DHT22;72834;40.104;18.336;2024-02-28T01:49:44;14.40;99.90
83019;DHT22;72834;40.104;18.336;2024-02-28T01:52:12;14.40;99.90
83019;DHT22;72834;40.104;18.336;2024-02-28T01:54:39;14.40;99.90
83019;DHT22;72834;40.104;18.336;2024-02-28T01:57:06;14.50;99.90
83019;DHT22;72834;40.104;18.336;2024-02-28T01:59:35;14.40;99.90
83019;DHT22;72834;40.104;18.336;2024-02-28T02:02:01;14.50;99.90
83019;DHT22;72834;40.104;18.336;2024-02-28T02:04:27;14.40;99.90
83019;DHT22;72834;40.104;18.336;2024-02-28T02:06:53;14.40;99.90
83019;DHT22;72834;40.104;18.336;2024-02-28T02:09:20;14.40;99.90
83019;DHT22;72834;40.104;18.336;2024-02-28T02:11:46;14.40;99.90
83019;DHT22;72834;40.104;18.336;2024-02-28T02:14:13;14.30;99.90
83019;DHT22;72834;40.104;18.336;2024-02-28T02:16:39;14.30;99.90
83019;DHT22;72834;40.104;18.336;2024-02-28T02:19:08;14.30;99.90
83019;DHT22;72834;40.104;18.336;2024-02-28T02:21:50;14.30;99.90
83019;DHT22;72834;40.104;18.336;2024-02-28T02:24:18;14.30;99.90
83019;DHT22;72834;40.104;18.336;2024-02-28T02:26:44;14.30;99.90
83019;DHT22;72834;40.104;18.336;2024-02-28T02:29:13;14.30;99.90
83019;DHT22;72834;40.104;18.336;2024-02-28T02:31:39;14.40;99.90
83019;DHT22;72834;40.104;18.336;2024-02-28T02:34:06;14.40;99.90
83019;DHT22;72834;40.104;18.336;2024-02-28T02:36:33;14.40;99.90
83019;DHT22;72834;40.104;18.336;2024-02-28T02:38:59;14.30;99.90
83019;DHT22;72834;40.104;18.336;2024-02-28T02:41:25;14.30;99.90
83019;DHT22;72834;40.104;18.336;2024-02-28T02:43:52;14.40;99.90
83019;DHT22;72834;40.104;18.336;2024-02-28T02:46:18;14.30;99.90
83019;DHT22;72834;40.104;18.336;2024-02-28T02:48:44;14.30;99.90
83019;DHT22;72834;40.104;18.336;2024-02-28T02:51:11;14.40;99.90
83019;DHT22;72834;40.104;18.336;2024-02-28T02:53:37;14.40;99.90
83019;DHT22;72834;40.104;18.336;2024-02-28T02:56:04;14.40;99.90
83019;DHT22;72834;40.104;18.336;2024-02-28T02:58:30;14.40;99.90
83019;DHT22;72834;40.104;18.336;2024-02-28T03:00:56;14.40;99.90
83019;DHT22;72834;40.104;18.336;2024-02-28T03:03:23;14.50;99.90
83019;DHT22;72834;40.104;18.336;2024-02-28T03:05:49;14.50;99.90
83019;DHT22;72834;40.104;18.336;2024-02-28T03:08:15;14.50;99.90
83019;DHT22;72834;40.104;18.336;2024-02-28T03:10:42;14.50;99.90
83019;DHT22;72834;40.104;18.336;2024-02-28T03:13:08;14.50;99.90
83019;DHT22;72834;40.104;18.336;2024-02-28T03:15:34;14.50;99.90
83019;DHT22;72834;40.104;18.336;2024-02-28T03:18:01;14.50;99.90
83019;DHT22;72834;40.104;18.336;2024-02-28T03:20:28;14.50;99.90
83019;DHT22;72834;40.104;18.336;2024-02-28T03:22:54;14.60;99.90
83019;DHT22;72834;40.104;18.336;2024-02-28T03:25:20;14.50;99.90
83019;DHT22;72834;40.104;18.336;2024-02-28T03:27:46;14.60;99.90
83019;DHT22;72834;40.104;18.336;2024-02-28T03:30:13;14.60;99.90
83019;DHT22;72834;40.104;18.336;2024-02-28T03:32:39;14.50;99.90
83019;DHT22;72834;40.104;18.336;2024-02-28T03:35:05;14.50;99.90
83019;DHT22;72834;40.104;18.336;2024-02-28T03:37:35;14.60;99.90
83019;DHT22;72834;40.104;18.336;2024-02-28T03:40:01;14.60;99.90
83019;DHT22;72834;40.104;18.336;2024-02-28T03:42:27;14.60;99.90
83019;DHT22;72834;40.104;18.336;2024-02-28T03:44:53;14.60;99.90
83019;DHT22;72834;40.104;18.336;2024-02-28T03:47:20;14.60;99.90
83019;DHT22;72834;40.104;18.336;2024-02-28T03:49:46;14.60;99.90
83019;DHT22;72834;40.104;18.336;2024-02-28T03:52:13;14.60;99.90
83019;DHT22;72834;40.104;18.336;2024-02-28T03:54:42;14.60;99.90
83019;DHT22;72834;40.104;18.336;2024-02-28T03:57:09;14.50;99.90
83019;DHT22;72834;40.104;18.336;2024-02-28T03:59:36;14.50;99.90
83019;DHT22;72834;40.104;18.336;2024-02-28T04:02:02;14.60;99.90
83019;DHT22;72834;40.104;18.336;2024-02-28T04:04:28;14.50;99.90
83019;DHT22;72834;40.104;18.336;2024-02-28T04:06:55;14.50;99.90
83019;DHT22;72834;40.104;18.336;2024-02-28T04:09:21;14.50;99.90
83019;DHT22;72834;40.104;18.336;2024-02-28T04:11:48;14.50;99.90
83019;DHT22;72834;40.104;18.336;2024-02-28T04:14:14;14.50;99.90
83019;DHT22;72834;40.104;18.336;2024-02-28T04:16:42;14.50;99.90
83019;DHT22;72834;40.104;18.336;2024-02-28T04:19:10;14.50;99.90
83019;DHT22;72834;40.104;18.336;2024-02-28T04:21:37;14.50;99.90
83019;DHT22;72834;40.104;18.336;2024-02-28T04:24:05;14.50;99.90
83019;DHT22;72834;40.104;18.336;2024-02-28T04:26:32;14.50;99.90
83019;DHT22;72834;40.104;18.336;2024-02-28T04:28:58;14.50;99.90
83019;DHT22;72834;40.104;18.336;2024-02-28T04:31:25;14.50;99.90
83019;DHT22;72834;40.104;18.336;2024-02-28T04:33:51;14.50;99.90
83019;DHT22;72834;40.104;18.336;2024-02-28T04:36:17;14.50;99.90
83019;DHT22;72834;40.104;18.336;2024-02-28T04:38:43;14.50;99.90
83019;DHT22;72834;40.104;18.336;2024-02-28T04:41:09;14.50;99.90
83019;DHT22;72834;40.104;18.336;2024-02-28T04:43:36;14.50;99.90
83019;DHT22;72834;40.104;18.336;2024-02-28T04:46:02;14.50;99.90
83019;DHT22;72834;40.104;18.336;2024-02-28T04:48:29;14.50;99.90
83019;DHT22;72834;40.104;18.336;2024-02-28T04:50:55;14.40;99.90
83019;DHT22;72834;40.104;18.336;2024-02-28T04:53:21;14.40;99.90
83019;DHT22;72834;40.104;18.336;2024-02-28T04:55:47;14.40;99.90
83019;DHT22;72834;40.104;18.336;2024-02-28T04:58:14;14.40;99.90
83019;DHT22;72834;40.104;18.336;2024-02-28T05:00:40;14.50;99.90
83019;DHT22;72834;40.104;18.336;2024-02-28T05:03:06;14.50;99.90
83019;DHT22;72834;40.104;18.336;2024-02-28T05:05:32;14.50;99.90
83019;DHT22;72834;40.104;18.336;2024-02-28T05:07:59;14.50;99.90
83019;DHT22;72834;40.104;18.336;2024-02-28T05:10:25;14.50;99.90
83019;DHT22;72834;40.104;18.336;2024-02-28T05:12:52;14.50;99.90
83019;DHT22;72834;40.104;18.336;2024-02-28T05:15:18;14.50;99.90
83019;DHT22;72834;40.104;18.336;2024-02-28T05:17:45;14.50;99.90
83019;DHT22;72834;40.104;18.336;2024-02-28T05:20:12;14.50;99.90
83019;DHT22;72834;40.104;18.336;2024-02-28T05:22:39;14.50;99.90
83019;DHT22;72834;40.104;18.336;2024-02-28T05:25:08;14.60;99.90
83019;DHT22;72834;40.104;18.336;2024-02-28T05:27:35;14.60;99.90
83019;DHT22;72834;40.104;18.336;2024-02-28T05:30:01;14.50;99.90
83019;DHT22;72834;40.104;18.336;2024-02-28T05:32:29;14.50;99.90
83019;DHT22;72834;40.104;18.336;2024-02-28T05:34:55;14.50;99.90
83019;DHT22;72834;40.104;18.336;2024-02-28T05:37:21;14.50;99.90
83019;DHT22;72834;40.104;18.336;2024-02-28T05:39:47;14.50;99.90
83019;DHT22;72834;40.104;18.336;2024-02-28T05:42:14;14.60;99.90
83019;DHT22;72834;40.104;18.336;2024-02-28T05:44:43;14.60;99.90
83019;DHT22;72834;40.104;18.336;2024-02-28T05:47:10;14.60;99.90
83019;DHT22;72834;40.104;18.336;2024-02-28T05:49:36;14.60;99.90
83019;DHT22;72834;40.104;18.336;2024-02-28T05:52:02;14.70;99.90
83019;DHT22;72834;40.104;18.336;2024-02-28T05:54:29;14.60;99.90
83019;DHT22;72834;40.104;18.336;2024-02-28T05:56:57;14.70;99.90
83019;DHT22;72834;40.104;18.336;2024-02-28T05:59:23;14.70;99.90
83019;DHT22;72834;40.104;18.336;2024-02-28T06:01:54;14.70;99.90
83019;DHT22;72834;40.104;18.336;2024-02-28T06:04:20;14.70;99.90
83019;DHT22;72834;40.104;18.336;2024-02-28T06:06:51;14.80;99.90
83019;DHT22;72834;40.104;18.336;2024-02-28T06:09:17;14.80;99.90
83019;DHT22;72834;40.104;18.336;2024-02-28T06:11:43;14.90;99.90
83019;DHT22;72834;40.104;18.336;2024-02-28T06:14:10;14.90;99.90
83019;DHT22;72834;40.104;18.336;2024-02-28T06:16:36;14.90;99.90
83019;DHT22;72834;40.104;18.336;2024-02-28T06:19:34;14.90;99.90
83019;DHT22;72834;40.104;18.336;2024-02-28T06:22:50;15.00;99.90
83019;DHT22;72834;40.104;18.336;2024-02-28T06:25:16;15.10;99.90
83019;DHT22;72834;40.104;18.336;2024-02-28T06:27:48;15.10;99.90
83019;DHT22;72834;40.104;18.336;2024-02-28T06:30:16;15.20;99.90
83019;DHT22;72834;40.104;18.336;2024-02-28T06:32:43;15.30;99.90
83019;DHT22;72834;40.104;18.336;2024-02-28T06:35:09;15.40;99.90
83019;DHT22;72834;40.104;18.336;2024-02-28T06:37:35;15.40;99.90
83019;DHT22;72834;40.104;18.336;2024-02-28T06:40:05;15.50;99.90
83019;DHT22;72834;40.104;18.336;2024-02-28T06:42:32;15.60;99.90
83019;DHT22;72834;40.104;18.336;2024-02-28T06:44:58;15.70;99.90
83019;DHT22;72834;40.104;18.336;2024-02-28T06:47:24;15.70;99.90
83019;DHT22;72834;40.104;18.336;2024-02-28T06:49:50;15.80;99.90
83019;DHT22;72834;40.104;18.336;2024-02-28T06:52:18;15.80;99.90
83019;DHT22;72834;40.104;18.336;2024-02-28T06:54:44;15.80;99.90
83019;DHT22;72834;40.104;18.336;2024-02-28T06:57:10;15.80;99.90
83019;DHT22;72834;40.104;18.336;2024-02-28T06:59:37;15.80;99.90
83019;DHT22;72834;40.104;18.336;2024-02-28T07:02:03;15.80;99.90
83019;DHT22;72834;40.104;18.336;2024-02-28T07:04:31;15.70;99.90
83019;DHT22;72834;40.104;18.336;2024-02-28T07:06:58;15.70;99.90
83019;DHT22;72834;40.104;18.336;2024-02-28T07:09:24;15.70;99.90
83019;DHT22;72834;40.104;18.336;2024-02-28T07:11:55;15.70;99.90
83019;DHT22;72834;40.104;18.336;2024-02-28T07:14:22;15.90;99.90
83019;DHT22;72834;40.104;18.336;2024-02-28T07:16:48;16.00;99.90
83019;DHT22;72834;40.104;18.336;2024-02-28T07:19:14;16.10;99.90
83019;DHT22;72834;40.104;18.336;2024-02-28T07:21:41;16.20;99.90
83019;DHT22;72834;40.104;18.336;2024-02-28T07:24:07;16.30;99.90
83019;DHT22;72834;40.104;18.336;2024-02-28T07:26:33;16.30;99.90
83019;DHT22;72834;40.104;18.336;2024-02-28T07:28:59;16.30;99.90
83019;DHT22;72834;40.104;18.336;2024-02-28T07:31:26;16.20;99.90
83019;DHT22;72834;40.104;18.336;2024-02-28T07:33:52;16.40;99.90
83019;DHT22;72834;40.104;18.336;2024-02-28T07:36:19;16.40;99.90
83019;DHT22;72834;40.104;18.336;2024-02-28T07:38:46;16.50;99.90
83019;DHT22;72834;40.104;18.336;2024-02-28T07:41:13;16.40;99.90
83019;DHT22;72834;40.104;18.336;2024-02-28T07:43:42;16.40;99.90
83019;DHT22;72834;40.104;18.336;2024-02-28T07:46:09;16.50;99.90
83019;DHT22;72834;40.104;18.336;2024-02-28T07:48:37;16.50;99.90
83019;DHT22;72834;40.104;18.336;2024-02-28T07:51:05;16.40;99.90
83019;DHT22;72834;40.104;18.336;2024-02-28T07:53:31;16.40;99.90
83019;DHT22;72834;40.104;18.336;2024-02-28T07:55:58;16.40;99.90
83019;DHT22;72834;40.104;18.336;2024-02-28T07:58:24;16.40;99.90
83019;DHT22;72834;40.104;18.336;2024-02-28T08:00:51;16.40;99.90
83019;DHT22;72834;40.104;18.336;2024-02-28T08:03:20;16.40;99.90
83019;DHT22;72834;40.104;18.336;2024-02-28T08:05:47;16.40;99.90
83019;DHT22;72834;40.104;18.336;2024-02-28T08:08:14;16.40;99.90
83019;DHT22;72834;40.104;18.336;2024-02-28T08:10:40;16.50;99.90
83019;DHT22;72834;40.104;18.336;2024-02-28T08:13:07;16.50;99.90
83019;DHT22;72834;40.104;18.336;2024-02-28T08:15:36;16.60;99.90
83019;DHT22;72834;40.104;18.336;2024-02-28T08:18:02;16.60;99.90
83019;DHT22;72834;40.104;18.336;2024-02-28T08:20:28;16.60;99.90
83019;DHT22;72834;40.104;18.336;2024-02-28T08:22:55;16.70;99.90
83019;DHT22;72834;40.104;18.336;2024-02-28T08:25:23;16.70;99.90
83019;DHT22;72834;40.104;18.336;2024-02-28T08:27:49;16.70;99.90
83019;DHT22;72834;40.104;18.336;2024-02-28T08:30:15;16.90;99.90
83019;DHT22;72834;40.104;18.336;2024-02-28T08:32:42;16.90;99.90
83019;DHT22;72834;40.104;18.336;2024-02-28T08:35:08;16.90;99.90
83019;DHT22;72834;40.104;18.336;2024-02-28T08:37:38;17.00;99.90
83019;DHT22;72834;40.104;18.336;2024-02-28T08:40:05;17.00;99.90
83019;DHT22;72834;40.104;18.336;2024-02-28T08:42:31;17.10;99.90
83019;DHT22;72834;40.104;18.336;2024-02-28T08:44:57;17.10;99.90
83019;DHT22;72834;40.104;18.336;2024-02-28T08:47:26;17.10;99.90
83019;DHT22;72834;40.104;18.336;2024-02-28T08:49:53;17.20;99.90
83019;DHT22;72834;40.104;18.336;2024-02-28T08:52:20;17.20;99.90
83019;DHT22;72834;40.104;18.336;2024-02-28T08:54:47;17.20;99.90
83019;DHT22;72834;40.104;18.336;2024-02-28T08:57:14;17.20;99.90
83019;DHT22;72834;40.104;18.336;2024-02-28T08:59:41;17.20;99.90
83019;DHT22;72834;40.104;18.336;2024-02-28T09:02:08;17.30;99.90
83019;DHT22;72834;40.104;18.336;2024-02-28T09:04:34;17.40;99.90
83019;DHT22;72834;40.104;18.336;2024-02-28T09:07:01;17.40;99.90
83019;DHT22;72834;40.104;18.336;2024-02-28T09:09:27;17.40;99.90
83019;DHT22;72834;40.104;18.336;2024-02-28T09:12:00;17.50;99.90
83019;DHT22;72834;40.104;18.336;2024-02-28T09:14:29;17.60;99.90
83019;DHT22;72834;40.104;18.336;2024-02-28T09:16:55;17.70;99.90
83019;DHT22;72834;40.104;18.336;2024-02-28T09:19:32;17.70;99.90
83019;DHT22;72834;40.104;18.336;2024-02-28T09:21:59;17.60;99.90
83019;DHT22;72834;40.104;18.336;2024-02-28T09:24:25;17.60;99.90
83019;DHT22;72834;40.104;18.336;2024-02-28T09:26:52;17.50;99.90
83019;DHT22;72834;40.104;18.336;2024-02-28T09:29:18;17.60;99.90
83019;DHT22;72834;40.104;18.336;2024-02-28T09:31:45;17.70;99.90
83019;DHT22;72834;40.104;18.336;2024-02-28T09:34:11;17.70;99.90
83019;DHT22;72834;40.104;18.336;2024-02-28T09:36:44;17.70;99.90
83019;DHT22;72834;40.104;18.336;2024-02-28T09:39:15;17.80;99.90
83019;DHT22;72834;40.104;18.336;2024-02-28T09:41:42;17.90;99.90
83019;DHT22;72834;40.104;18.336;2024-02-28T09:44:08;17.90;99.90
83019;DHT22;72834;40.104;18.336;2024-02-28T09:46:34;18.00;99.90
83019;DHT22;72834;40.104;18.336;2024-02-28T09:49:05;18.00;99.90
83019;DHT22;72834;40.104;18.336;2024-02-28T09:51:36;18.10;99.90
83019;DHT22;72834;40.104;18.336;2024-02-28T09:54:03;18.10;99.90
83019;DHT22;72834;40.104;18.336;2024-02-28T09:56:33;18.20;99.90
83019;DHT22;72834;40.104;18.336;2024-02-28T09:59:00;18.20;99.90
83019;DHT22;72834;40.104;18.336;2024-02-28T10:01:29;18.30;99.90
83019;DHT22;72834;40.104;18.336;2024-02-28T10:03:55;18.40;99.90
83019;DHT22;72834;40.104;18.336;2024-02-28T10:06:22;18.20;99.90
83019;DHT22;72834;40.104;18.336;2024-02-28T10:08:48;18.30;99.90
83019;DHT22;72834;40.104;18.336;2024-02-28T10:11:22;18.20;99.90
83019;DHT22;72834;40.104;18.336;2024-02-28T10:13:49;18.20;99.90
83019;DHT22;72834;40.104;18.336;2024-02-28T10:16:16;18.10;99.90
83019;DHT22;72834;40.104;18.336;2024-02-28T10:18:46;18.30;99.90
83019;DHT22;72834;40.104;18.336;2024-02-28T10:21:13;18.30;99.90
83019;DHT22;72834;40.104;18.336;2024-02-28T10:23:44;18.40;99.90
83019;DHT22;72834;40.104;18.336;2024-02-28T10:26:11;18.50;99.90
83019;DHT22;72834;40.104;18.336;2024-02-28T10:28:39;18.50;99.90
83019;DHT22;72834;40.104;18.336;2024-02-28T10:31:06;18.70;99.90
83019;DHT22;72834;40.104;18.336;2024-02-28T10:33:33;18.70;99.90
83019;DHT22;72834;40.104;18.336;2024-02-28T10:36:05;18.60;99.90
83019;DHT22;72834;40.104;18.336;2024-02-28T10:38:32;18.40;99.90
83019;DHT22;72834;40.104;18.336;2024-02-28T10:41:00;18.60;99.90
83019;DHT22;72834;40.104;18.336;2024-02-28T10:43:31;18.60;99.90
83019;DHT22;72834;40.104;18.336;2024-02-28T10:46:01;18.60;99.90
83019;DHT22;72834;40.104;18.336;2024-02-28T10:48:27;18.70;99.90
83019;DHT22;72834;40.104;18.336;2024-02-28T10:50:54;18.70;99.90
83019;DHT22;72834;40.104;18.336;2024-02-28T10:53:37;18.60;99.90
83019;DHT22;72834;40.104;18.336;2024-02-28T10:56:11;18.70;99.90
83019;DHT22;72834;40.104;18.336;2024-02-28T10:58:50;18.60;99.90
83019;DHT22;72834;40.104;18.336;2024-02-28T11:01:17;18.70;99.90
83019;DHT22;72834;40.104;18.336;2024-02-28T11:03:44;18.70;99.90
83019;DHT22;72834;40.104;18.336;2024-02-28T11:06:18;18.70;99.90
83019;DHT22;72834;40.104;18.336;2024-02-28T11:08:47;18.70;99.90
83019;DHT22;72834;40.104;18.336;2024-02-28T11:11:15;18.70;99.90
83019;DHT22;72834;40.104;18.336;2024-02-28T11:13:58;19.00;99.90
83019;DHT22;72834;40.104;18.336;2024-02-28T11:16:28;19.20;99.90
83019;DHT22;72834;40.104;18.336;2024-02-28T11:18:55;19.30;99.90
83019;DHT22;72834;40.104;18.336;2024-02-28T11:21:34;19.50;99.90
83019;DHT22;72834;40.104;18.336;2024-02-28T11:24:01;19.40;99.90
83019;DHT22;72834;40.104;18.336;2024-02-28T11:26:28;19.50;99.90
83019;DHT22;72834;40.104;18.336;2024-02-28T11:28:57;19.60;99.90
83019;DHT22;72834;40.104;18.336;2024-02-28T11:31:23;20.00;99.90
83019;DHT22;72834;40.104;18.336;2024-02-28T11:33:50;20.20;99.90
83019;DHT22;72834;40.104;18.336;2024-02-28T11:36:16;20.70;99.90
83019;DHT22;72834;40.104;18.336;2024-02-28T11:38:42;21.20;99.90
83019;DHT22;72834;40.104;18.336;2024-02-28T11:41:08;21.30;99.90
83019;DHT22;72834;40.104;18.336;2024-02-28T11:43:35;21.50;99.90
83019;DHT22;72834;40.104;18.336;2024-02-28T11:46:01;21.00;99.90
83019;DHT22;72834;40.104;18.336;2024-02-28T11:48:28;20.70;99.90
83019;DHT22;72834;40.104;18.336;2024-02-28T11:50:56;20.80;99.90
83019;DHT22;72834;40.104;18.336;2024-02-28T11:53:25;20.80;99.90
83019;DHT22;72834;40.104;18.336;2024-02-28T11:55:54;20.60;99.90
83019;DHT22;72834;40.104;18.336;2024-02-28T11:58:22;20.50;99.90
83019;DHT22;72834;40.104;18.336;2024-02-28T12:00:51;20.20;99.90
83019;DHT22;72834;40.104;18.336;2024-02-28T12:03:22;19.90;99.90
83019;DHT22;72834;40.104;18.336;2024-02-28T12:05:48;19.80;99.90
83019;DHT22;72834;40.104;18.336;2024-02-28T12:08:17;20.00;99.90
83019;DHT22;72834;40.104;18.336;2024-02-28T12:10:45;20.10;99.90
83019;DHT22;72834;40.104;18.336;2024-02-28T12:13:17;20.10;99.90
83019;DHT22;72834;40.104;18.336;2024-02-28T12:15:44;20.20;99.90
83019;DHT22;72834;40.104;18.336;2024-02-28T12:18:11;20.20;99.90
83019;DHT22;72834;40.104;18.336;2024-02-28T12:20:40;20.30;99.90
83019;DHT22;72834;40.104;18.336;2024-02-28T12:23:07;20.70;99.90
83019;DHT22;72834;40.104;18.336;2024-02-28T12:25:34;21.20;99.90
83019;DHT22;72834;40.104;18.336;2024-02-28T12:28:05;21.50;99.90
83019;DHT22;72834;40.104;18.336;2024-02-28T12:30:40;21.80;99.90
83019;DHT22;72834;40.104;18.336;2024-02-28T12:33:07;21.80;99.90
83019;DHT22;72834;40.104;18.336;2024-02-28T12:35:33;22.20;99.90
83019;DHT22;72834;40.104;18.336;2024-02-28T12:37:59;21.90;99.90
83019;DHT22;72834;40.104;18.336;2024-02-28T12:40:26;21.70;99.90
83019;DHT22;72834;40.104;18.336;2024-02-28T12:42:52;21.50;99.90
83019;DHT22;72834;40.104;18.336;2024-02-28T12:45:18;21.60;99.90
83019;DHT22;72834;40.104;18.336;2024-02-28T12:47:44;21.50;99.90
83019;DHT22;72834;40.104;18.336;2024-02-28T12:50:10;21.20;99.90
83019;DHT22;72834;40.104;18.336;2024-02-28T12:52:37;20.90;99.90
83019;DHT22;72834;40.104;18.336;2024-02-28T12:55:03;20.70;99.90
83019;DHT22;72834;40.104;18.336;2024-02-28T12:57:30;20.50;99.90
83019;DHT22;72834;40.104;18.336;2024-02-28T12:59:56;20.10;99.90
83019;DHT22;72834;40.104;18.336;2024-02-28T13:02:22;19.80;99.90
83019;DHT22;72834;40.104;18.336;2024-02-28T13:04:49;20.10;99.90
83019;DHT22;72834;40.104;18.336;2024-02-28T13:07:15;20.10;99.90
83019;DHT22;72834;40.104;18.336;2024-02-28T13:09:42;20.10;99.90
83019;DHT22;72834;40.104;18.336;2024-02-28T13:12:08;19.80;99.90
83019;DHT22;72834;40.104;18.336;2024-02-28T13:14:35;19.80;99.90
83019;DHT22;72834;40.104;18.336;2024-02-28T13:17:01;19.80;99.90
83019;DHT22;72834;40.104;18.336;2024-02-28T13:19:27;19.70;99.90
83019;DHT22;72834;40.104;18.336;2024-02-28T13:21:53;19.50;99.90
83019;DHT22;72834;40.104;18.336;2024-02-28T13:24:20;19.40;99.90
83019;DHT22;72834;40.104;18.336;2024-02-28T13:26:46;19.50;99.90
83019;DHT22;72834;40.104;18.336;2024-02-28T13:29:12;19.50;99.90
83019;DHT22;72834;40.104;18.336;2024-02-28T13:31:39;19.30;99.90
83019;DHT22;72834;40.104;18.336;2024-02-28T13:34:05;19.10;99.90
83019;DHT22;72834;40.104;18.336;2024-02-28T13:36:31;19.20;99.90
83019;DHT22;72834;40.104;18.336;2024-02-28T13:39:00;18.90;99.90
83019;DHT22;72834;40.104;18.336;2024-02-28T13:41:26;19.10;99.90
83019;DHT22;72834;40.104;18.336;2024-02-28T13:43:52;19.00;99.90
83019;DHT22;72834;40.104;18.336;2024-02-28T13:46:18;18.80;99.90
83019;DHT22;72834;40.104;18.336;2024-02-28T13:48:45;18.80;99.90
83019;DHT22;72834;40.104;18.336;2024-02-28T13:51:14;18.90;99.90
83019;DHT22;72834;40.104;18.336;2024-02-28T13:53:41;18.90;99.90
83019;DHT22;72834;40.104;18.336;2024-02-28T13:56:07;18.90;99.90
83019;DHT22;72834;40.104;18.336;2024-02-28T13:58:34;18.90;99.90
83019;DHT22;72834;40.104;18.336;2024-02-28T14:01:00;18.80;99.90
83019;DHT22;72834;40.104;18.336;2024-02-28T14:03:26;18.80;99.90
83019;DHT22;72834;40.104;18.336;2024-02-28T14:05:55;18.80;99.90
83019;DHT22;72834;40.104;18.336;2024-02-28T14:08:21;18.80;99.90
83019;DHT22;72834;40.104;18.336;2024-02-28T14:10:47;18.80;99.90
83019;DHT22;72834;40.104;18.336;2024-02-28T14:13:14;18.90;99.90
83019;DHT22;72834;40.104;18.336;2024-02-28T14:15:41;18.80;99.90
83019;DHT22;72834;40.104;18.336;2024-02-28T14:18:07;18.80;99.90
83019;DHT22;72834;40.104;18.336;2024-02-28T14:20:34;18.80;99.90
83019;DHT22;72834;40.104;18.336;2024-02-28T14:23:00;18.70;99.90
83019;DHT22;72834;40.104;18.336;2024-02-28T14:25:28;18.60;99.90
83019;DHT22;72834;40.104;18.336;2024-02-28T14:27:54;18.60;99.90
83019;DHT22;72834;40.104;18.336;2024-02-28T14:30:21;18.40;99.90
83019;DHT22;72834;40.104;18.336;2024-02-28T14:32:48;18.50;99.90
83019;DHT22;72834;40.104;18.336;2024-02-28T14:35:15;18.50;99.90
83019;DHT22;72834;40.104;18.336;2024-02-28T14:37:42;18.60;99.90
83019;DHT22;72834;40.104;18.336;2024-02-28T14:40:10;18.60;99.90
83019;DHT22;72834;40.104;18.336;2024-02-28T14:42:40;18.70;99.90
83019;DHT22;72834;40.104;18.336;2024-02-28T14:45:08;18.60;99.90
83019;DHT22;72834;40.104;18.336;2024-02-28T14:47:37;18.60;99.90
83019;DHT22;72834;40.104;18.336;2024-02-28T14:50:03;18.50;99.90
83019;DHT22;72834;40.104;18.336;2024-02-28T14:52:30;18.50;99.90
83019;DHT22;72834;40.104;18.336;2024-02-28T14:54:56;18.30;99.90
83019;DHT22;72834;40.104;18.336;2024-02-28T14:57:22;18.30;99.90
83019;DHT22;72834;40.104;18.336;2024-02-28T14:59:49;18.20;99.90
83019;DHT22;72834;40.104;18.336;2024-02-28T15:02:15;18.30;99.90
83019;DHT22;72834;40.104;18.336;2024-02-28T15:04:41;18.30;99.90
83019;DHT22;72834;40.104;18.336;2024-02-28T15:07:07;18.20;99.90
83019;DHT22;72834;40.104;18.336;2024-02-28T15:09:34;18.00;99.90
83019;DHT22;72834;40.104;18.336;2024-02-28T15:12:00;18.00;99.90
83019;DHT22;72834;40.104;18.336;2024-02-28T15:14:26;18.10;99.90
83019;DHT22;72834;40.104;18.336;2024-02-28T15:16:52;18.10;99.90